Terminal Aerodrome Forecast
Issued by NWS Twin Cities, MN

Home | Current Version | Previous Version | Graphics & Text | Print | Product List | Glossary On
Versions: 1 2 3 4 5 6 7 8 9 10 11 12 13 14 15 16
000
FTUS43 KMPX 241126
TAFSTC
TAF
KSTC 241126Z 2412/2512 10008KT P6SM BKN250
     FM241400 14011G19KT P6SM BKN200
     FM242000 17016G25KT P6SM VCSH BKN100
     FM250200 17010KT P6SM OVC050
     FM250600 24005KT P6SM OVC030
     FM251000 30006KT P6SM OVC020=

USA.gov is the U.S. government's official web portal to all federal, state and local government web resources and services.